createdAt,value
2023-06-09T00:10:00.783Z,100373.47
2023-06-09T00:25:04.434Z,100385.72
2023-06-09T00:40:09.177Z,100389.13
2023-06-09T00:55:13.531Z,100390.69
2023-06-09T01:10:24.065Z,100396.59
2023-06-09T01:25:31.536Z,100390.91
2023-06-09T01:40:35.455Z,100375.25
2023-06-09T01:55:40.965Z,100372.81
2023-06-09T02:10:44.159Z,100376.59
2023-06-09T02:25:47.264Z,100372.44
2023-06-09T02:40:50.529Z,100371.56
2023-06-09T02:55:54.254Z,100372.75
2023-06-09T03:11:01.749Z,100368.25
2023-06-09T03:26:05.689Z,100379.91
2023-06-09T03:41:09.767Z,100394.69
2023-06-09T03:56:14.494Z,100398.06
2023-06-09T04:11:17.814Z,100395.63
2023-06-09T04:26:20.930Z,100397.28
2023-06-09T04:41:24.100Z,100398.50
2023-06-09T04:56:27.419Z,100405.28
2023-06-09T05:11:31.962Z,100404.72
2023-06-09T05:26:35.494Z,100386.16
2023-06-09T05:41:38.695Z,100391.88
2023-06-09T05:56:43.072Z,100400.28
2023-06-09T06:11:46.521Z,100406.16
2023-06-09T06:26:49.529Z,100411.47
2023-06-09T06:41:53.007Z,100420.78
2023-06-09T06:56:56.058Z,100422.53
2023-06-09T07:11:59.041Z,100439.03
2023-06-09T07:27:02.170Z,100435.69
2023-06-09T07:42:05.932Z,100429.59
2023-06-09T07:57:08.950Z,100423.47
2023-06-09T08:12:12.384Z,100416.44
2023-06-09T08:27:16.570Z,100422.63
2023-06-09T08:42:21.086Z,100404.75
2023-06-09T08:57:24.254Z,100400.47
2023-06-09T09:12:45.605Z,100383.66
2023-06-09T09:27:59.110Z,100384.50
2023-06-09T09:43:02.872Z,100363.19
2023-06-09T09:58:07.183Z,100355.16
2023-06-09T10:13:10.348Z,100336.44
2023-06-09T10:28:13.727Z,100327.44
2023-06-09T10:43:26.909Z,100316.38
2023-06-09T10:58:36.992Z,100304.44
2023-06-09T11:13:41.171Z,100296.59
2023-06-09T11:28:45.597Z,100277.06
2023-06-09T11:43:52.929Z,100272.91
2023-06-09T11:58:55.998Z,100257.66
2023-06-09T12:13:59.090Z,100241.66
2023-06-09T12:29:02.311Z,100229.69
2023-06-09T12:44:05.449Z,100218.69
2023-06-09T12:59:09.816Z,100223.03
2023-06-09T13:14:12.916Z,100200.72
2023-06-09T13:29:15.948Z,100230.91
2023-06-09T13:44:19.294Z,100198.19
2023-06-09T13:59:22.469Z,100189.97
2023-06-09T14:14:25.754Z,100173.06
2023-06-09T14:29:29.289Z,100165.97
2023-06-09T14:44:33.586Z,100160.63
2023-06-09T14:59:36.668Z,100144.47
2023-06-09T15:14:39.642Z,100129.38
2023-06-09T15:29:42.627Z,100136.38
2023-06-09T15:44:46.103Z,100129.38
2023-06-09T15:59:49.172Z,100133.88
2023-06-09T16:14:52.338Z,100132.25
2023-06-09T16:29:55.370Z,100126.16
2023-06-09T16:44:58.427Z,100123.53
2023-06-09T17:00:01.656Z,100125.28
2023-06-09T17:15:05.971Z,100154.47
2023-06-09T17:30:14.305Z,100151.81
2023-06-09T17:45:18.445Z,100153.63
2023-06-09T18:00:22.406Z,100155.38
2023-06-09T18:15:26.788Z,100152.59
2023-06-09T18:30:29.973Z,100155.97
2023-06-09T18:45:33.134Z,100154.94
2023-06-09T19:00:36.265Z,100179.25
2023-06-09T19:15:39.402Z,100188.34
2023-06-09T19:30:42.726Z,100200.81
2023-06-09T19:45:48.600Z,100232.31
2023-06-09T20:00:54.368Z,100236.81
2023-06-09T20:15:57.525Z,100252.34
2023-06-09T20:31:00.548Z,100272.63
2023-06-09T20:46:03.992Z,100285.31
2023-06-09T21:01:07.289Z,100302.44
2023-06-09T21:16:10.357Z,100309.28
2023-06-09T21:31:13.551Z,100310.97
2023-06-09T21:46:17.036Z,100319.97
2023-06-09T22:01:20.107Z,100341.69
2023-06-09T22:16:23.368Z,100339.56
2023-06-09T22:31:26.523Z,100340.31
2023-06-09T22:46:31.840Z,100350.59
2023-06-09T23:01:35.007Z,100353.78
2023-06-09T23:16:38.108Z,100349.91
2023-06-09T23:31:41.190Z,100345.84
2023-06-09T23:46:44.372Z,100353.06
